sensor_id;sensor_type;location;lat;lon;timestamp;P1;durP1;ratioP1;P2;durP2;ratioP2
41221;SDS011;26952;42.884;23.918;2023-05-03T00:00:53;6.78;;;6.18;;
41221;SDS011;26952;42.884;23.918;2023-05-03T00:03:19;6.72;;;6.28;;
41221;SDS011;26952;42.884;23.918;2023-05-03T00:05:47;14.93;;;6.85;;
41221;SDS011;26952;42.884;23.918;2023-05-03T00:08:13;6.80;;;6.25;;
41221;SDS011;26952;42.884;23.918;2023-05-03T00:10:39;7.25;;;6.85;;
41221;SDS011;26952;42.884;23.918;2023-05-03T00:13:04;8.65;;;7.53;;
41221;SDS011;26952;42.884;23.918;2023-05-03T00:15:30;8.70;;;7.93;;
41221;SDS011;26952;42.884;23.918;2023-05-03T00:17:55;8.30;;;6.50;;
41221;SDS011;26952;42.884;23.918;2023-05-03T00:20:21;8.02;;;7.32;;
41221;SDS011;26952;42.884;23.918;2023-05-03T00:22:46;7.90;;;7.13;;
41221;SDS011;26952;42.884;23.918;2023-05-03T00:25:11;8.25;;;7.45;;
41221;SDS011;26952;42.884;23.918;2023-05-03T00:27:37;7.90;;;7.30;;
41221;SDS011;26952;42.884;23.918;2023-05-03T00:30:02;8.85;;;8.18;;
41221;SDS011;26952;42.884;23.918;2023-05-03T00:32:28;8.55;;;7.97;;
41221;SDS011;26952;42.884;23.918;2023-05-03T00:34:54;7.88;;;7.32;;
41221;SDS011;26952;42.884;23.918;2023-05-03T00:37:21;8.52;;;8.02;;
41221;SDS011;26952;42.884;23.918;2023-05-03T00:39:47;9.77;;;8.40;;
41221;SDS011;26952;42.884;23.918;2023-05-03T00:42:12;9.25;;;8.75;;
41221;SDS011;26952;42.884;23.918;2023-05-03T00:44:38;9.65;;;9.13;;
41221;SDS011;26952;42.884;23.918;2023-05-03T00:47:03;10.57;;;9.60;;
41221;SDS011;26952;42.884;23.918;2023-05-03T00:49:29;9.95;;;9.15;;
41221;SDS011;26952;42.884;23.918;2023-05-03T00:51:54;10.82;;;10.13;;
41221;SDS011;26952;42.884;23.918;2023-05-03T00:54:21;10.27;;;9.48;;
41221;SDS011;26952;42.884;23.918;2023-05-03T00:56:47;8.50;;;7.93;;
41221;SDS011;26952;42.884;23.918;2023-05-03T00:59:12;9.10;;;8.38;;
41221;SDS011;26952;42.884;23.918;2023-05-03T01:01:38;8.52;;;8.02;;
41221;SDS011;26952;42.884;23.918;2023-05-03T01:04:03;7.53;;;6.93;;
41221;SDS011;26952;42.884;23.918;2023-05-03T01:06:43;7.50;;;6.90;;
41221;SDS011;26952;42.884;23.918;2023-05-03T01:16:52;8.57;;;7.97;;
41221;SDS011;26952;42.884;23.918;2023-05-03T01:19:26;8.40;;;7.80;;
41221;SDS011;26952;42.884;23.918;2023-05-03T01:21:57;8.73;;;8.13;;
41221;SDS011;26952;42.884;23.918;2023-05-03T01:24:34;8.27;;;7.72;;
41221;SDS011;26952;42.884;23.918;2023-05-03T01:27:02;8.00;;;7.28;;
41221;SDS011;26952;42.884;23.918;2023-05-03T01:29:28;8.00;;;7.53;;
41221;SDS011;26952;42.884;23.918;2023-05-03T01:31:58;8.75;;;8.23;;
41221;SDS011;26952;42.884;23.918;2023-05-03T01:37:20;8.13;;;7.35;;
41221;SDS011;26952;42.884;23.918;2023-05-03T01:40:20;7.97;;;7.47;;
41221;SDS011;26952;42.884;23.918;2023-05-03T01:42:40;10.05;;;8.25;;
41221;SDS011;26952;42.884;23.918;2023-05-03T01:45:06;8.38;;;7.47;;
41221;SDS011;26952;42.884;23.918;2023-05-03T01:47:33;7.50;;;6.90;;
41221;SDS011;26952;42.884;23.918;2023-05-03T01:49:58;7.47;;;6.78;;
41221;SDS011;26952;42.884;23.918;2023-05-03T01:52:24;6.60;;;6.10;;
41221;SDS011;26952;42.884;23.918;2023-05-03T01:54:50;6.93;;;6.47;;
41221;SDS011;26952;42.884;23.918;2023-05-03T01:57:15;7.07;;;6.57;;
41221;SDS011;26952;42.884;23.918;2023-05-03T01:59:40;7.95;;;7.13;;
41221;SDS011;26952;42.884;23.918;2023-05-03T02:02:06;7.55;;;6.93;;
41221;SDS011;26952;42.884;23.918;2023-05-03T02:04:31;7.45;;;6.88;;
41221;SDS011;26952;42.884;23.918;2023-05-03T02:06:57;7.03;;;6.60;;
41221;SDS011;26952;42.884;23.918;2023-05-03T02:09:22;7.80;;;7.10;;
41221;SDS011;26952;42.884;23.918;2023-05-03T02:11:48;7.93;;;7.15;;
41221;SDS011;26952;42.884;23.918;2023-05-03T02:14:14;8.05;;;7.32;;
41221;SDS011;26952;42.884;23.918;2023-05-03T02:16:39;7.35;;;6.65;;
41221;SDS011;26952;42.884;23.918;2023-05-03T02:19:04;8.10;;;7.55;;
41221;SDS011;26952;42.884;23.918;2023-05-03T02:21:32;7.22;;;6.78;;
41221;SDS011;26952;42.884;23.918;2023-05-03T02:23:58;9.27;;;8.63;;
41221;SDS011;26952;42.884;23.918;2023-05-03T02:26:24;8.70;;;8.18;;
41221;SDS011;26952;42.884;23.918;2023-05-03T02:28:50;9.55;;;8.05;;
41221;SDS011;26952;42.884;23.918;2023-05-03T02:31:15;11.02;;;8.70;;
41221;SDS011;26952;42.884;23.918;2023-05-03T02:33:40;8.20;;;7.50;;
41221;SDS011;26952;42.884;23.918;2023-05-03T02:36:06;10.18;;;9.50;;
41221;SDS011;26952;42.884;23.918;2023-05-03T02:38:32;9.75;;;9.00;;
41221;SDS011;26952;42.884;23.918;2023-05-03T02:40:57;9.55;;;9.02;;
41221;SDS011;26952;42.884;23.918;2023-05-03T02:43:23;9.45;;;8.75;;
41221;SDS011;26952;42.884;23.918;2023-05-03T02:45:49;9.80;;;9.00;;
41221;SDS011;26952;42.884;23.918;2023-05-03T02:48:14;10.27;;;9.52;;
41221;SDS011;26952;42.884;23.918;2023-05-03T02:50:40;9.93;;;9.05;;
41221;SDS011;26952;42.884;23.918;2023-05-03T02:53:06;9.52;;;8.68;;
41221;SDS011;26952;42.884;23.918;2023-05-03T02:55:32;13.13;;;11.90;;
41221;SDS011;26952;42.884;23.918;2023-05-03T02:57:57;11.60;;;10.93;;
41221;SDS011;26952;42.884;23.918;2023-05-03T03:00:22;9.90;;;9.05;;
41221;SDS011;26952;42.884;23.918;2023-05-03T03:02:48;11.45;;;10.85;;
41221;SDS011;26952;42.884;23.918;2023-05-03T03:05:14;11.88;;;11.07;;
41221;SDS011;26952;42.884;23.918;2023-05-03T03:07:39;12.23;;;11.13;;
41221;SDS011;26952;42.884;23.918;2023-05-03T03:10:05;11.05;;;10.15;;
41221;SDS011;26952;42.884;23.918;2023-05-03T03:12:32;11.18;;;10.57;;
41221;SDS011;26952;42.884;23.918;2023-05-03T03:14:59;10.45;;;9.70;;
41221;SDS011;26952;42.884;23.918;2023-05-03T03:17:25;15.13;;;14.15;;
41221;SDS011;26952;42.884;23.918;2023-05-03T03:19:50;17.27;;;16.38;;
41221;SDS011;26952;42.884;23.918;2023-05-03T03:22:16;19.35;;;18.35;;
41221;SDS011;26952;42.884;23.918;2023-05-03T03:24:41;18.05;;;16.98;;
41221;SDS011;26952;42.884;23.918;2023-05-03T03:27:07;20.95;;;19.75;;
41221;SDS011;26952;42.884;23.918;2023-05-03T03:29:32;20.80;;;19.65;;
41221;SDS011;26952;42.884;23.918;2023-05-03T03:31:59;20.10;;;18.88;;
41221;SDS011;26952;42.884;23.918;2023-05-03T03:34:24;22.27;;;21.13;;
41221;SDS011;26952;42.884;23.918;2023-05-03T03:36:50;20.33;;;19.20;;
41221;SDS011;26952;42.884;23.918;2023-05-03T03:39:15;21.63;;;20.13;;
41221;SDS011;26952;42.884;23.918;2023-05-03T03:41:40;17.77;;;16.60;;
41221;SDS011;26952;42.884;23.918;2023-05-03T03:44:06;16.83;;;15.70;;
41221;SDS011;26952;42.884;23.918;2023-05-03T03:46:31;14.25;;;13.02;;
41221;SDS011;26952;42.884;23.918;2023-05-03T03:48:57;13.70;;;12.70;;
41221;SDS011;26952;42.884;23.918;2023-05-03T03:51:22;14.48;;;13.65;;
41221;SDS011;26952;42.884;23.918;2023-05-03T03:53:48;15.38;;;14.20;;
41221;SDS011;26952;42.884;23.918;2023-05-03T03:56:13;13.88;;;12.55;;
41221;SDS011;26952;42.884;23.918;2023-05-03T03:58:38;17.10;;;16.02;;
41221;SDS011;26952;42.884;23.918;2023-05-03T04:01:04;21.45;;;20.35;;
41221;SDS011;26952;42.884;23.918;2023-05-03T04:03:30;26.10;;;24.33;;
41221;SDS011;26952;42.884;23.918;2023-05-03T04:05:55;22.30;;;21.00;;
41221;SDS011;26952;42.884;23.918;2023-05-03T04:08:21;22.83;;;21.48;;
41221;SDS011;26952;42.884;23.918;2023-05-03T04:10:46;19.02;;;17.92;;
41221;SDS011;26952;42.884;23.918;2023-05-03T04:13:11;19.50;;;18.40;;
41221;SDS011;26952;42.884;23.918;2023-05-03T04:15:37;17.30;;;16.10;;
41221;SDS011;26952;42.884;23.918;2023-05-03T04:18:02;16.02;;;15.13;;
41221;SDS011;26952;42.884;23.918;2023-05-03T04:20:28;15.60;;;14.60;;
41221;SDS011;26952;42.884;23.918;2023-05-03T04:22:53;13.20;;;12.32;;
41221;SDS011;26952;42.884;23.918;2023-05-03T04:25:19;13.02;;;12.10;;
41221;SDS011;26952;42.884;23.918;2023-05-03T04:27:44;13.57;;;12.68;;
41221;SDS011;26952;42.884;23.918;2023-05-03T04:30:10;14.27;;;13.07;;
41221;SDS011;26952;42.884;23.918;2023-05-03T04:32:39;14.27;;;13.45;;
41221;SDS011;26952;42.884;23.918;2023-05-03T04:35:05;11.75;;;10.73;;
41221;SDS011;26952;42.884;23.918;2023-05-03T04:37:34;12.63;;;11.90;;
41221;SDS011;26952;42.884;23.918;2023-05-03T04:40:00;12.57;;;11.77;;
41221;SDS011;26952;42.884;23.918;2023-05-03T04:42:28;14.15;;;13.18;;
41221;SDS011;26952;42.884;23.918;2023-05-03T04:44:53;14.30;;;13.20;;
41221;SDS011;26952;42.884;23.918;2023-05-03T04:47:19;12.48;;;11.38;;
41221;SDS011;26952;42.884;23.918;2023-05-03T04:49:45;11.60;;;10.75;;
41221;SDS011;26952;42.884;23.918;2023-05-03T04:52:11;11.38;;;10.48;;
41221;SDS011;26952;42.884;23.918;2023-05-03T04:54:36;12.30;;;11.60;;
41221;SDS011;26952;42.884;23.918;2023-05-03T04:57:02;13.55;;;12.07;;
41221;SDS011;26952;42.884;23.918;2023-05-03T04:59:27;13.77;;;12.57;;
41221;SDS011;26952;42.884;23.918;2023-05-03T05:01:52;12.50;;;11.45;;
41221;SDS011;26952;42.884;23.918;2023-05-03T05:04:18;11.70;;;10.10;;
41221;SDS011;26952;42.884;23.918;2023-05-03T05:06:43;11.57;;;10.43;;
41221;SDS011;26952;42.884;23.918;2023-05-03T05:09:19;10.60;;;9.63;;
41221;SDS011;26952;42.884;23.918;2023-05-03T05:11:45;10.95;;;10.25;;
41221;SDS011;26952;42.884;23.918;2023-05-03T05:14:11;9.98;;;9.38;;
41221;SDS011;26952;42.884;23.918;2023-05-03T05:16:37;10.88;;;9.95;;
41221;SDS011;26952;42.884;23.918;2023-05-03T05:19:02;10.30;;;9.68;;
41221;SDS011;26952;42.884;23.918;2023-05-03T05:21:28;11.10;;;10.30;;
41221;SDS011;26952;42.884;23.918;2023-05-03T05:23:53;10.50;;;9.80;;
41221;SDS011;26952;42.884;23.918;2023-05-03T05:26:19;11.90;;;11.15;;
41221;SDS011;26952;42.884;23.918;2023-05-03T05:28:44;11.30;;;10.52;;
41221;SDS011;26952;42.884;23.918;2023-05-03T05:31:09;12.35;;;11.18;;
41221;SDS011;26952;42.884;23.918;2023-05-03T05:33:35;11.10;;;10.32;;
41221;SDS011;26952;42.884;23.918;2023-05-03T05:36:00;17.17;;;15.85;;
41221;SDS011;26952;42.884;23.918;2023-05-03T05:38:26;13.50;;;12.60;;
41221;SDS011;26952;42.884;23.918;2023-05-03T05:40:52;13.27;;;12.07;;
41221;SDS011;26952;42.884;23.918;2023-05-03T05:43:17;16.35;;;14.98;;
41221;SDS011;26952;42.884;23.918;2023-05-03T05:45:43;18.67;;;17.65;;
41221;SDS011;26952;42.884;23.918;2023-05-03T05:48:08;21.13;;;19.65;;
41221;SDS011;26952;42.884;23.918;2023-05-03T05:50:33;22.08;;;20.88;;
41221;SDS011;26952;42.884;23.918;2023-05-03T05:52:59;22.80;;;21.52;;
41221;SDS011;26952;42.884;23.918;2023-05-03T05:55:25;24.98;;;23.33;;
41221;SDS011;26952;42.884;23.918;2023-05-03T05:57:51;23.85;;;22.15;;
41221;SDS011;26952;42.884;23.918;2023-05-03T06:00:16;20.35;;;19.13;;
41221;SDS011;26952;42.884;23.918;2023-05-03T06:02:43;16.83;;;15.73;;
41221;SDS011;26952;42.884;23.918;2023-05-03T06:05:09;19.15;;;17.85;;
41221;SDS011;26952;42.884;23.918;2023-05-03T06:07:35;28.85;;;26.52;;
41221;SDS011;26952;42.884;23.918;2023-05-03T06:10:01;20.98;;;19.77;;
41221;SDS011;26952;42.884;23.918;2023-05-03T06:12:28;20.33;;;19.20;;
41221;SDS011;26952;42.884;23.918;2023-05-03T06:14:53;19.67;;;18.48;;
41221;SDS011;26952;42.884;23.918;2023-05-03T06:17:19;22.73;;;21.17;;
41221;SDS011;26952;42.884;23.918;2023-05-03T06:19:46;22.20;;;20.90;;
41221;SDS011;26952;42.884;23.918;2023-05-03T06:22:13;22.27;;;20.98;;
41221;SDS011;26952;42.884;23.918;2023-05-03T06:24:41;20.15;;;18.95;;
41221;SDS011;26952;42.884;23.918;2023-05-03T06:27:06;19.95;;;18.75;;
41221;SDS011;26952;42.884;23.918;2023-05-03T06:29:32;18.80;;;17.70;;
41221;SDS011;26952;42.884;23.918;2023-05-03T06:31:57;21.52;;;20.13;;
41221;SDS011;26952;42.884;23.918;2023-05-03T06:34:23;20.60;;;19.48;;
41221;SDS011;26952;42.884;23.918;2023-05-03T06:36:49;23.38;;;21.85;;
41221;SDS011;26952;42.884;23.918;2023-05-03T06:39:15;23.92;;;22.35;;
41221;SDS011;26952;42.884;23.918;2023-05-03T06:41:40;21.42;;;20.23;;
41221;SDS011;26952;42.884;23.918;2023-05-03T06:44:06;19.75;;;18.48;;
41221;SDS011;26952;42.884;23.918;2023-05-03T06:46:32;17.77;;;16.85;;
41221;SDS011;26952;42.884;23.918;2023-05-03T06:48:57;19.02;;;17.77;;
41221;SDS011;26952;42.884;23.918;2023-05-03T06:51:23;18.08;;;16.98;;
41221;SDS011;26952;42.884;23.918;2023-05-03T06:53:55;18.17;;;16.90;;
41221;SDS011;26952;42.884;23.918;2023-05-03T06:56:22;19.23;;;17.92;;
41221;SDS011;26952;42.884;23.918;2023-05-03T06:58:48;19.73;;;18.42;;
41221;SDS011;26952;42.884;23.918;2023-05-03T07:01:13;14.55;;;13.45;;
41221;SDS011;26952;42.884;23.918;2023-05-03T07:03:39;15.00;;;14.00;;
41221;SDS011;26952;42.884;23.918;2023-05-03T07:06:04;15.10;;;14.18;;
41221;SDS011;26952;42.884;23.918;2023-05-03T07:08:30;14.05;;;13.25;;
41221;SDS011;26952;42.884;23.918;2023-05-03T07:10:56;13.57;;;12.77;;
41221;SDS011;26952;42.884;23.918;2023-05-03T07:13:21;15.05;;;13.75;;
41221;SDS011;26952;42.884;23.918;2023-05-03T07:15:47;15.93;;;14.00;;
41221;SDS011;26952;42.884;23.918;2023-05-03T07:18:12;19.75;;;18.27;;
41221;SDS011;26952;42.884;23.918;2023-05-03T07:20:38;22.25;;;21.00;;
41221;SDS011;26952;42.884;23.918;2023-05-03T07:23:03;22.33;;;20.98;;
41221;SDS011;26952;42.884;23.918;2023-05-03T07:25:30;29.58;;;27.77;;
41221;SDS011;26952;42.884;23.918;2023-05-03T07:27:56;32.00;;;30.40;;
41221;SDS011;26952;42.884;23.918;2023-05-03T07:30:21;30.52;;;28.83;;
41221;SDS011;26952;42.884;23.918;2023-05-03T07:32:47;28.98;;;27.38;;
41221;SDS011;26952;42.884;23.918;2023-05-03T07:35:12;34.45;;;32.53;;
41221;SDS011;26952;42.884;23.918;2023-05-03T07:37:38;48.80;;;46.10;;
41221;SDS011;26952;42.884;23.918;2023-05-03T07:40:05;54.35;;;51.15;;
41221;SDS011;26952;42.884;23.918;2023-05-03T07:42:31;62.20;;;58.72;;
41221;SDS011;26952;42.884;23.918;2023-05-03T07:44:56;60.03;;;56.72;;
41221;SDS011;26952;42.884;23.918;2023-05-03T07:47:23;55.38;;;52.15;;
41221;SDS011;26952;42.884;23.918;2023-05-03T07:49:48;55.42;;;52.13;;
41221;SDS011;26952;42.884;23.918;2023-05-03T07:52:15;34.25;;;31.95;;
41221;SDS011;26952;42.884;23.918;2023-05-03T07:54:41;19.55;;;18.25;;
41221;SDS011;26952;42.884;23.918;2023-05-03T07:57:07;17.30;;;16.08;;
41221;SDS011;26952;42.884;23.918;2023-05-03T07:59:33;19.60;;;18.20;;
41221;SDS011;26952;42.884;23.918;2023-05-03T08:01:58;22.45;;;20.92;;
41221;SDS011;26952;42.884;23.918;2023-05-03T08:04:23;21.33;;;19.70;;
41221;SDS011;26952;42.884;23.918;2023-05-03T08:06:49;23.38;;;21.63;;
41221;SDS011;26952;42.884;23.918;2023-05-03T08:09:14;36.50;;;34.45;;
41221;SDS011;26952;42.884;23.918;2023-05-03T08:11:40;51.42;;;48.65;;
41221;SDS011;26952;42.884;23.918;2023-05-03T08:14:05;55.75;;;52.25;;
41221;SDS011;26952;42.884;23.918;2023-05-03T08:16:31;50.50;;;47.63;;
41221;SDS011;26952;42.884;23.918;2023-05-03T08:18:56;57.75;;;54.58;;
41221;SDS011;26952;42.884;23.918;2023-05-03T08:21:21;53.70;;;50.92;;
41221;SDS011;26952;42.884;23.918;2023-05-03T08:23:48;30.83;;;28.83;;
41221;SDS011;26952;42.884;23.918;2023-05-03T08:26:14;28.60;;;26.95;;
41221;SDS011;26952;42.884;23.918;2023-05-03T08:28:40;24.75;;;23.20;;
41221;SDS011;26952;42.884;23.918;2023-05-03T08:31:06;32.60;;;30.70;;
41221;SDS011;26952;42.884;23.918;2023-05-03T08:33:31;25.15;;;23.52;;
41221;SDS011;26952;42.884;23.918;2023-05-03T08:35:57;15.23;;;14.35;;
41221;SDS011;26952;42.884;23.918;2023-05-03T08:38:22;17.13;;;16.10;;
41221;SDS011;26952;42.884;23.918;2023-05-03T08:40:49;16.95;;;15.73;;
41221;SDS011;26952;42.884;23.918;2023-05-03T08:43:17;17.65;;;16.55;;
41221;SDS011;26952;42.884;23.918;2023-05-03T08:45:44;15.63;;;14.70;;
41221;SDS011;26952;42.884;23.918;2023-05-03T08:48:09;17.15;;;15.95;;
41221;SDS011;26952;42.884;23.918;2023-05-03T08:50:35;20.90;;;19.75;;
41221;SDS011;26952;42.884;23.918;2023-05-03T08:53:06;22.27;;;20.88;;
41221;SDS011;26952;42.884;23.918;2023-05-03T08:55:35;24.30;;;22.90;;
41221;SDS011;26952;42.884;23.918;2023-05-03T08:58:01;28.08;;;26.55;;
41221;SDS011;26952;42.884;23.918;2023-05-03T09:00:34;26.23;;;24.83;;
41221;SDS011;26952;42.884;23.918;2023-05-03T09:03:00;28.55;;;26.85;;
41221;SDS011;26952;42.884;23.918;2023-05-03T09:08:00;34.10;;;32.30;;
41221;SDS011;26952;42.884;23.918;2023-05-03T09:10:28;31.92;;;30.17;;
41221;SDS011;26952;42.884;23.918;2023-05-03T09:13:00;31.70;;;29.90;;
41221;SDS011;26952;42.884;23.918;2023-05-03T09:15:27;30.40;;;28.48;;
41221;SDS011;26952;42.884;23.918;2023-05-03T09:18:13;27.90;;;26.50;;
41221;SDS011;26952;42.884;23.918;2023-05-03T09:20:43;34.78;;;32.78;;
41221;SDS011;26952;42.884;23.918;2023-05-03T09:23:27;36.60;;;34.55;;
41221;SDS011;26952;42.884;23.918;2023-05-03T09:25:55;39.73;;;37.43;;
41221;SDS011;26952;42.884;23.918;2023-05-03T09:28:21;27.67;;;26.20;;
41221;SDS011;26952;42.884;23.918;2023-05-03T09:30:48;26.38;;;24.77;;
41221;SDS011;26952;42.884;23.918;2023-05-03T09:33:14;25.77;;;24.27;;
41221;SDS011;26952;42.884;23.918;2023-05-03T09:35:56;23.40;;;22.20;;
41221;SDS011;26952;42.884;23.918;2023-05-03T09:38:32;38.08;;;36.15;;
41221;SDS011;26952;42.884;23.918;2023-05-03T09:41:00;29.67;;;27.98;;
41221;SDS011;26952;42.884;23.918;2023-05-03T09:43:27;23.85;;;22.58;;
41221;SDS011;26952;42.884;23.918;2023-05-03T09:45:52;30.67;;;29.10;;
41221;SDS011;26952;42.884;23.918;2023-05-03T09:48:35;28.77;;;27.35;;
41221;SDS011;26952;42.884;23.918;2023-05-03T09:51:02;36.97;;;35.08;;
41221;SDS011;26952;42.884;23.918;2023-05-03T09:53:29;29.25;;;27.67;;
41221;SDS011;26952;42.884;23.918;2023-05-03T09:55:56;42.08;;;39.70;;
41221;SDS011;26952;42.884;23.918;2023-05-03T09:58:23;32.38;;;30.77;;
41221;SDS011;26952;42.884;23.918;2023-05-03T10:00:50;36.58;;;34.67;;
41221;SDS011;26952;42.884;23.918;2023-05-03T10:03:17;32.17;;;30.10;;
41221;SDS011;26952;42.884;23.918;2023-05-03T10:05:48;31.00;;;29.20;;
41221;SDS011;26952;42.884;23.918;2023-05-03T10:08:31;42.25;;;39.75;;
41221;SDS011;26952;42.884;23.918;2023-05-03T10:10:59;34.38;;;32.65;;
41221;SDS011;26952;42.884;23.918;2023-05-03T10:13:28;27.30;;;25.75;;
41221;SDS011;26952;42.884;23.918;2023-05-03T10:16:01;29.00;;;27.08;;
41221;SDS011;26952;42.884;23.918;2023-05-03T10:18:31;29.40;;;27.70;;
41221;SDS011;26952;42.884;23.918;2023-05-03T10:21:03;27.20;;;25.77;;
41221;SDS011;26952;42.884;23.918;2023-05-03T10:23:33;33.22;;;31.48;;
41221;SDS011;26952;42.884;23.918;2023-05-03T10:28:34;26.23;;;24.73;;
41221;SDS011;26952;42.884;23.918;2023-05-03T10:33:27;36.30;;;34.30;;
41221;SDS011;26952;42.884;23.918;2023-05-03T10:35:58;32.10;;;30.20;;
41221;SDS011;26952;42.884;23.918;2023-05-03T10:38:30;33.17;;;31.52;;
41221;SDS011;26952;42.884;23.918;2023-05-03T10:40:58;31.27;;;29.70;;
41221;SDS011;26952;42.884;23.918;2023-05-03T10:45:54;41.25;;;39.20;;
41221;SDS011;26952;42.884;23.918;2023-05-03T10:48:21;44.28;;;42.10;;
41221;SDS011;26952;42.884;23.918;2023-05-03T10:50:47;55.60;;;52.75;;
41221;SDS011;26952;42.884;23.918;2023-05-03T10:56:05;58.88;;;55.80;;
41221;SDS011;26952;42.884;23.918;2023-05-03T11:01:02;59.85;;;56.90;;
41221;SDS011;26952;42.884;23.918;2023-05-03T11:03:33;61.10;;;57.90;;
41221;SDS011;26952;42.884;23.918;2023-05-03T11:05:59;64.63;;;61.30;;
41221;SDS011;26952;42.884;23.918;2023-05-03T11:08:27;65.60;;;62.40;;
41221;SDS011;26952;42.884;23.918;2023-05-03T11:10:59;65.45;;;62.17;;
41221;SDS011;26952;42.884;23.918;2023-05-03T11:13:25;62.28;;;59.13;;
41221;SDS011;26952;42.884;23.918;2023-05-03T11:15:54;64.53;;;61.22;;
41221;SDS011;26952;42.884;23.918;2023-05-03T11:18:20;60.22;;;57.15;;
41221;SDS011;26952;42.884;23.918;2023-05-03T11:20:46;65.38;;;62.05;;
41221;SDS011;26952;42.884;23.918;2023-05-03T11:23:13;74.03;;;70.38;;
41221;SDS011;26952;42.884;23.918;2023-05-03T11:25:39;72.32;;;68.55;;
41221;SDS011;26952;42.884;23.918;2023-05-03T11:28:04;73.55;;;69.75;;
41221;SDS011;26952;42.884;23.918;2023-05-03T11:30:31;67.50;;;63.97;;
41221;SDS011;26952;42.884;23.918;2023-05-03T11:32:58;68.80;;;65.32;;
41221;SDS011;26952;42.884;23.918;2023-05-03T11:35:24;75.22;;;71.47;;
41221;SDS011;26952;42.884;23.918;2023-05-03T11:37:51;75.10;;;70.82;;
41221;SDS011;26952;42.884;23.918;2023-05-03T11:40:17;73.13;;;69.50;;
41221;SDS011;26952;42.884;23.918;2023-05-03T11:42:53;78.25;;;74.30;;
41221;SDS011;26952;42.884;23.918;2023-05-03T11:45:20;65.85;;;62.50;;
41221;SDS011;26952;42.884;23.918;2023-05-03T11:47:47;69.68;;;66.13;;
41221;SDS011;26952;42.884;23.918;2023-05-03T11:50:13;62.97;;;59.83;;
41221;SDS011;26952;42.884;23.918;2023-05-03T11:52:39;72.03;;;68.40;;
41221;SDS011;26952;42.884;23.918;2023-05-03T11:55:06;57.53;;;54.58;;
41221;SDS011;26952;42.884;23.918;2023-05-03T11:57:32;63.35;;;60.13;;
41221;SDS011;26952;42.884;23.918;2023-05-03T12:00:12;47.85;;;45.45;;
41221;SDS011;26952;42.884;23.918;2023-05-03T12:02:41;42.80;;;40.70;;
41221;SDS011;26952;42.884;23.918;2023-05-03T12:05:12;47.75;;;45.38;;
41221;SDS011;26952;42.884;23.918;2023-05-03T12:07:39;57.03;;;53.85;;
41221;SDS011;26952;42.884;23.918;2023-05-03T12:10:11;51.75;;;48.88;;
41221;SDS011;26952;42.884;23.918;2023-05-03T12:12:37;68.80;;;65.22;;
41221;SDS011;26952;42.884;23.918;2023-05-03T12:15:03;50.08;;;47.55;;
41221;SDS011;26952;42.884;23.918;2023-05-03T12:17:39;53.35;;;50.63;;
41221;SDS011;26952;42.884;23.918;2023-05-03T12:20:20;71.88;;;68.22;;
41221;SDS011;26952;42.884;23.918;2023-05-03T12:22:53;80.43;;;75.97;;
41221;SDS011;26952;42.884;23.918;2023-05-03T12:25:20;65.07;;;61.72;;
41221;SDS011;26952;42.884;23.918;2023-05-03T12:27:46;66.13;;;62.42;;
41221;SDS011;26952;42.884;23.918;2023-05-03T12:30:11;49.08;;;46.58;;
41221;SDS011;26952;42.884;23.918;2023-05-03T12:32:38;83.55;;;79.15;;
41221;SDS011;26952;42.884;23.918;2023-05-03T12:35:04;65.88;;;62.25;;
41221;SDS011;26952;42.884;23.918;2023-05-03T12:37:30;75.28;;;71.40;;
41221;SDS011;26952;42.884;23.918;2023-05-03T12:39:56;61.67;;;58.25;;
41221;SDS011;26952;42.884;23.918;2023-05-03T12:42:21;59.83;;;56.72;;
41221;SDS011;26952;42.884;23.918;2023-05-03T12:44:47;63.92;;;60.67;;
41221;SDS011;26952;42.884;23.918;2023-05-03T12:47:12;63.67;;;60.45;;
41221;SDS011;26952;42.884;23.918;2023-05-03T12:49:38;60.72;;;57.53;;
41221;SDS011;26952;42.884;23.918;2023-05-03T12:52:03;56.15;;;53.22;;
41221;SDS011;26952;42.884;23.918;2023-05-03T12:54:29;69.95;;;66.25;;
41221;SDS011;26952;42.884;23.918;2023-05-03T12:56:54;61.05;;;57.85;;
41221;SDS011;26952;42.884;23.918;2023-05-03T12:59:20;70.90;;;67.35;;
41221;SDS011;26952;42.884;23.918;2023-05-03T13:01:45;69.03;;;65.50;;
41221;SDS011;26952;42.884;23.918;2023-05-03T13:04:11;61.80;;;58.60;;
41221;SDS011;26952;42.884;23.918;2023-05-03T13:06:37;53.58;;;50.58;;
41221;SDS011;26952;42.884;23.918;2023-05-03T13:09:03;62.28;;;58.95;;
41221;SDS011;26952;42.884;23.918;2023-05-03T13:11:30;58.33;;;55.33;;
41221;SDS011;26952;42.884;23.918;2023-05-03T13:13:56;65.50;;;62.20;;
41221;SDS011;26952;42.884;23.918;2023-05-03T13:16:21;47.85;;;45.35;;
41221;SDS011;26952;42.884;23.918;2023-05-03T13:18:48;46.95;;;44.42;;
41221;SDS011;26952;42.884;23.918;2023-05-03T13:21:18;67.75;;;64.10;;
41221;SDS011;26952;42.884;23.918;2023-05-03T13:23:44;80.20;;;76.13;;
41221;SDS011;26952;42.884;23.918;2023-05-03T13:26:10;75.28;;;71.43;;
41221;SDS011;26952;42.884;23.918;2023-05-03T13:28:35;72.85;;;69.10;;
41221;SDS011;26952;42.884;23.918;2023-05-03T13:31:01;70.90;;;67.15;;
41221;SDS011;26952;42.884;23.918;2023-05-03T13:33:26;63.80;;;60.53;;
41221;SDS011;26952;42.884;23.918;2023-05-03T13:35:53;63.75;;;60.50;;
41221;SDS011;26952;42.884;23.918;2023-05-03T13:38:18;65.45;;;61.95;;
41221;SDS011;26952;42.884;23.918;2023-05-03T13:40:44;60.33;;;57.25;;
41221;SDS011;26952;42.884;23.918;2023-05-03T13:43:10;58.65;;;55.63;;
41221;SDS011;26952;42.884;23.918;2023-05-03T13:45:35;48.58;;;46.10;;
41221;SDS011;26952;42.884;23.918;2023-05-03T13:48:00;41.38;;;39.25;;
41221;SDS011;26952;42.884;23.918;2023-05-03T13:50:27;35.47;;;33.63;;
41221;SDS011;26952;42.884;23.918;2023-05-03T13:52:54;40.67;;;38.53;;
41221;SDS011;26952;42.884;23.918;2023-05-03T13:55:20;53.33;;;50.13;;
41221;SDS011;26952;42.884;23.918;2023-05-03T13:57:46;65.47;;;61.35;;
41221;SDS011;26952;42.884;23.918;2023-05-03T14:00:12;47.47;;;44.83;;
41221;SDS011;26952;42.884;23.918;2023-05-03T14:02:38;44.97;;;42.17;;
41221;SDS011;26952;42.884;23.918;2023-05-03T14:05:03;50.92;;;48.00;;
41221;SDS011;26952;42.884;23.918;2023-05-03T14:07:29;57.10;;;53.70;;
41221;SDS011;26952;42.884;23.918;2023-05-03T14:09:55;63.58;;;60.17;;
41221;SDS011;26952;42.884;23.918;2023-05-03T14:12:21;76.88;;;72.55;;
41221;SDS011;26952;42.884;23.918;2023-05-03T14:14:47;68.78;;;64.63;;
41221;SDS011;26952;42.884;23.918;2023-05-03T14:17:12;40.08;;;37.42;;
41221;SDS011;26952;42.884;23.918;2023-05-03T14:19:38;33.63;;;31.20;;
41221;SDS011;26952;42.884;23.918;2023-05-03T14:22:04;42.13;;;39.50;;
41221;SDS011;26952;42.884;23.918;2023-05-03T14:24:29;40.38;;;36.80;;
41221;SDS011;26952;42.884;23.918;2023-05-03T14:26:55;58.10;;;53.35;;
41221;SDS011;26952;42.884;23.918;2023-05-03T14:29:23;59.50;;;55.60;;
41221;SDS011;26952;42.884;23.918;2023-05-03T14:31:49;61.22;;;57.53;;
41221;SDS011;26952;42.884;23.918;2023-05-03T14:34:14;54.72;;;51.28;;
41221;SDS011;26952;42.884;23.918;2023-05-03T14:36:40;54.65;;;51.67;;